Time;durP1;ratioP1;P1;durP2;ratioP2;P2;SDS_P1;SDS_P2;PMS_P1;PMS_P2;Temp;Humidity;BMP_temperature;BMP_pressure;BME280_temperature;BME280_humidity;BME280_pressure;Samples;Min_cycle;Max_cycle;Signal;HPM_P1;HPM_P2
2022/10/02 00:02:25;;;;;;;13.80;1.60;;;13.30;99.90;;;;;;5048439;28;20119;-73
2022/10/02 00:04:57;;;;;;;13.73;1.20;;;13.20;99.90;;;;;;5049326;28;20579;-74
2022/10/02 00:07:36;;;;;;;14.20;1.30;;;13.20;99.90;;;;;;5040429;28;20086;-74
2022/10/02 00:10:43;;;;;;;12.50;0.90;;;13.20;99.90;;;;;;5049265;28;20115;-74
2022/10/02 00:13:18;;;;;;;14.35;1.60;;;13.10;99.90;;;;;;5040391;28;20076;-74
2022/10/02 00:15:44;;;;;;;9.48;1.13;;;13.10;99.90;;;;;;5043071;28;20500;-74
2022/10/02 00:18:17;;;;;;;8.40;0.75;;;13.10;99.90;;;;;;5044678;28;20059;-74
2022/10/02 00:20:56;;;;;;;12.57;1.67;;;13.00;99.90;;;;;;5044994;28;20392;-74
2022/10/02 00:23:38;;;;;;;9.55;1.15;;;13.10;99.90;;;;;;5046196;28;20037;-74
2022/10/02 00:26:22;;;;;;;10.40;1.02;;;13.00;99.90;;;;;;5043095;28;20028;-74
2022/10/02 00:29:02;;;;;;;10.98;0.80;;;12.90;99.90;;;;;;5039154;28;20508;-74
2022/10/02 00:31:51;;;;;;;10.20;0.90;;;12.80;99.90;;;;;;5044809;28;20025;-74
2022/10/02 00:34:29;;;;;;;8.35;0.70;;;12.80;99.90;;;;;;5046462;28;20037;-74
2022/10/02 00:37:19;;;;;;;11.27;1.13;;;12.70;99.90;;;;;;5047734;28;20032;-74
2022/10/02 00:40:22;;;;;;;10.05;0.80;;;12.60;99.90;;;;;;5047788;28;20120;-74
2022/10/02 00:42:55;;;;;;;;;;;12.60;99.90;;;;;;5045836;28;20045;-74
2022/10/02 00:45:30;;;;;;;11.35;1.15;;;12.50;99.90;;;;;;5047320;28;19919;-74
2022/10/02 00:48:33;;;;;;;11.02;1.70;;;12.50;99.90;;;;;;5049925;28;20515;-73
2022/10/02 00:51:26;;;;;;;9.13;1.70;;;12.50;99.90;;;;;;5048134;28;20028;-74
2022/10/02 00:54:15;;;;;;;11.23;2.22;;;12.60;99.90;;;;;;5040016;28;20037;-74
2022/10/02 00:56:50;;;;;;;9.82;2.40;;;12.50;99.90;;;;;;5049297;28;20021;-73
2022/10/02 00:59:27;;;;;;;13.80;2.88;;;12.50;99.90;;;;;;5048910;28;20531;-74
2022/10/02 01:01:56;;;;;;;19.33;4.10;;;12.50;99.90;;;;;;5039580;28;20033;-74
2022/10/02 01:04:38;;;;;;;14.45;4.90;;;12.40;99.90;;;;;;5045867;28;20041;-74
2022/10/02 01:07:07;;;;;;;19.25;6.60;;;12.40;99.90;;;;;;5041095;28;20053;-74
2022/10/02 01:09:33;;;;;;;24.85;8.18;;;12.40;99.90;;;;;;5036813;28;20030;-75
2022/10/02 01:11:59;;;;;;;22.27;8.50;;;12.40;99.90;;;;;;5044744;28;20029;-74
2022/10/02 01:14:36;;;;;;;25.50;9.77;;;12.50;99.90;;;;;;5048110;28;20083;-74
2022/10/02 01:17:04;;;;;;;21.63;10.48;;;12.50;99.90;;;;;;5036922;28;20115;-74
2022/10/02 01:19:36;;;;;;;22.48;11.07;;;12.50;99.90;;;;;;5049360;28;20048;-74
2022/10/02 01:22:33;;;;;;;29.00;11.50;;;12.50;99.90;;;;;;5048898;28;20033;-74
2022/10/02 01:25:03;;;;;;;26.50;10.30;;;12.50;99.90;;;;;;5044947;28;20039;-74
2022/10/02 01:27:29;;;;;;;28.83;11.30;;;12.50;99.90;;;;;;5040168;28;20032;-74
2022/10/02 01:30:06;;;;;;;30.45;11.32;;;12.50;99.90;;;;;;5041874;28;20025;-74
2022/10/02 01:32:34;;;;;;;35.40;11.40;;;12.50;99.90;;;;;;5047985;28;20029;-74
2022/10/02 01:35:00;;;;;;;42.10;12.73;;;12.50;99.90;;;;;;5036528;28;20053;-73
2022/10/02 01:37:31;;;;;;;25.77;10.32;;;12.50;99.90;;;;;;5046693;28;20563;-75
2022/10/02 01:40:03;;;;;;;33.63;11.25;;;12.50;99.90;;;;;;5047547;28;20023;-74
2022/10/02 01:42:29;;;;;;;34.92;9.68;;;12.60;99.90;;;;;;5049257;28;20029;-73
2022/10/02 01:44:54;;;;;;;26.80;10.07;;;12.60;99.90;;;;;;5044604;28;20040;-74
2022/10/02 01:47:31;;;;;;;31.83;10.63;;;12.70;99.90;;;;;;5047675;28;20029;-74
2022/10/02 01:50:04;;;;;;;34.20;10.18;;;12.70;99.90;;;;;;5046425;28;20078;-74
2022/10/02 01:52:48;;;;;;;33.20;9.68;;;12.70;99.90;;;;;;5046422;28;20021;-74
2022/10/02 01:55:34;;;;;;;35.63;9.75;;;12.80;99.90;;;;;;5039138;28;20026;-74
2022/10/02 01:58:18;;;;;;;31.10;8.90;;;12.80;99.90;;;;;;5041651;28;20025;-74
2022/10/02 02:01:10;;;;;;;21.20;8.13;;;12.80;99.90;;;;;;5043290;28;20171;-73
2022/10/02 02:03:53;;;;;;;28.65;7.03;;;12.80;99.90;;;;;;5046186;28;20044;-74
2022/10/02 02:06:42;;;;;;;26.27;7.53;;;12.80;99.90;;;;;;5048861;28;20457;-74
2022/10/02 02:09:18;;;;;;;28.42;8.30;;;12.80;99.90;;;;;;5048076;28;20033;-74
2022/10/02 02:11:57;;;;;;;22.67;6.35;;;12.80;99.90;;;;;;5046399;28;20032;-74
2022/10/02 02:14:36;;;;;;;27.95;7.97;;;12.80;99.90;;;;;;5040581;28;20114;-74
2022/10/02 02:17:25;;;;;;;32.03;5.95;;;12.70;99.90;;;;;;5043740;28;20033;-74
2022/10/02 02:20:00;;;;;;;26.17;5.10;;;12.70;99.90;;;;;;5046853;28;20035;-74
2022/10/02 02:22:33;;;;;;;23.90;5.18;;;12.60;99.90;;;;;;5050657;28;20358;-74
2022/10/02 02:25:08;;;;;;;24.30;4.93;;;12.70;99.90;;;;;;5053106;28;20432;-74
2022/10/02 02:27:38;;;;;;;22.95;4.43;;;12.60;99.90;;;;;;5049221;28;20087;-74
2022/10/02 02:30:07;;;;;;;26.55;5.28;;;12.60;99.90;;;;;;5050681;28;20062;-74
2022/10/02 02:32:36;;;;;;;30.75;5.22;;;12.60;99.90;;;;;;5052688;28;20025;-75
2022/10/02 02:35:20;;;;;;;28.70;4.97;;;12.60;99.90;;;;;;5052804;28;20488;-73
2022/10/02 02:37:50;;;;;;;32.40;5.43;;;12.60;99.90;;;;;;5046328;28;20033;-74
2022/10/02 02:40:21;;;;;;;26.38;4.40;;;12.60;99.90;;;;;;5050053;28;20159;-74
2022/10/02 02:42:58;;;;;;;32.80;4.55;;;12.70;99.90;;;;;;5050249;28;20123;-74
2022/10/02 02:45:29;;;;;;;26.27;4.43;;;12.70;99.90;;;;;;5053459;28;20025;-73
2022/10/02 02:47:59;;;;;;;26.48;3.78;;;12.70;99.90;;;;;;5046008;28;20028;-74
2022/10/02 02:50:56;;;;;;;26.38;3.83;;;12.70;99.90;;;;;;5049706;28;20103;-74
2022/10/02 02:53:31;;;;;;;26.52;4.30;;;12.70;99.90;;;;;;5044817;28;20089;-74
2022/10/02 02:56:03;;;;;;;23.15;4.70;;;12.70;99.90;;;;;;5044810;28;20025;-75
2022/10/02 02:58:48;;;;;;;23.83;3.30;;;12.60;99.90;;;;;;5044890;28;20026;-74
2022/10/02 03:01:13;;;;;;;27.20;4.47;;;12.60;99.90;;;;;;5050535;28;20033;-73
2022/10/02 03:03:39;;;;;;;20.98;3.20;;;12.60;99.90;;;;;;5049394;28;20092;-74
2022/10/02 03:06:22;;;;;;;26.92;3.22;;;12.60;99.90;;;;;;5048192;28;20028;-74
2022/10/02 03:08:50;;;;;;;33.15;5.50;;;12.60;99.90;;;;;;5042933;28;20022;-74
2022/10/02 03:11:52;;;;;;;23.00;2.85;;;12.50;99.90;;;;;;5040781;28;20083;-74
2022/10/02 03:14:46;;;;;;;26.63;3.20;;;12.50;99.90;;;;;;5048590;28;20065;-74
2022/10/02 03:17:32;;;;;;;31.83;3.75;;;12.50;99.90;;;;;;5049250;28;20040;-74
2022/10/02 03:20:40;;;;;;;22.58;3.75;;;12.50;99.90;;;;;;5049128;28;20105;-74
2022/10/02 03:23:58;;;;;;;32.33;4.22;;;12.60;99.90;;;;;;5042399;28;20029;-74
2022/10/02 03:26:40;;;;;;;27.25;3.72;;;12.60;99.90;;;;;;5052303;28;20099;-74
2022/10/02 03:29:25;;;;;;;25.48;3.30;;;12.70;99.90;;;;;;5035810;28;20100;-74
2022/10/02 03:31:52;;;;;;;32.65;3.75;;;12.70;99.90;;;;;;5036357;28;20065;-74
2022/10/02 03:34:18;;;;;;;31.83;4.22;;;12.80;99.90;;;;;;5042878;28;20116;-74
2022/10/02 03:36:45;;;;;;;29.42;4.78;;;12.80;99.90;;;;;;5050414;28;20025;-74
2022/10/02 03:39:11;;;;;;;31.80;4.72;;;12.80;99.90;;;;;;5042703;28;20032;-74
2022/10/02 03:41:36;;;;;;;37.78;5.30;;;12.80;99.90;;;;;;5033084;28;20067;-74
2022/10/02 03:44:02;;;;;;;41.38;5.57;;;12.80;99.90;;;;;;5038415;28;20575;-74
2022/10/02 03:46:28;;;;;;;33.63;4.97;;;12.90;99.90;;;;;;5048978;28;20083;-74
2022/10/02 03:48:55;;;;;;;30.08;4.47;;;12.80;99.90;;;;;;5037031;28;20103;-73
2022/10/02 03:51:21;;;;;;;27.27;4.43;;;12.80;99.90;;;;;;5041509;28;20032;-74
2022/10/02 03:53:46;;;;;;;37.28;4.68;;;12.80;99.90;;;;;;5051281;28;20029;-74
2022/10/02 03:56:26;;;;;;;42.03;5.25;;;12.80;99.90;;;;;;5047320;28;20384;-73
2022/10/02 03:58:56;;;;;;;28.05;3.90;;;12.80;99.90;;;;;;5053118;28;20097;-74
2022/10/02 04:01:31;;;;;;;35.45;4.55;;;12.80;99.90;;;;;;5044739;28;20462;-73
2022/10/02 04:04:21;;;;;;;30.60;4.95;;;12.70;99.90;;;;;;5055929;28;20036;-73
2022/10/02 04:06:52;;;;;;;31.60;5.10;;;12.70;99.90;;;;;;5050367;28;20021;-73
2022/10/02 04:09:20;;;;;;;31.25;5.28;;;12.80;99.90;;;;;;5046332;28;20033;-73
2022/10/02 04:11:52;;;;;;;34.85;4.70;;;12.70;99.90;;;;;;5040482;28;20501;-72
2022/10/02 04:14:22;;;;;;;27.77;4.38;;;12.80;99.90;;;;;;5047500;28;20033;-73
2022/10/02 04:17:06;;;;;;;32.08;4.30;;;12.80;99.90;;;;;;5050987;28;20496;-73
2022/10/02 04:19:56;;;;;;;26.30;3.80;;;12.80;99.90;;;;;;5047002;28;20090;-73
2022/10/02 04:23:12;;;;;;;36.00;4.80;;;12.90;99.90;;;;;;5051910;28;20044;-73
2022/10/02 04:25:45;;;;;;;30.00;4.20;;;12.90;99.90;;;;;;5017612;28;20060;-73
2022/10/02 04:28:14;;;;;;;35.83;4.70;;;12.80;99.90;;;;;;5039593;28;20075;-73
2022/10/02 04:30:39;;;;;;;28.30;4.63;;;12.80;99.90;;;;;;5045883;28;20076;-73
2022/10/02 04:33:18;;;;;;;27.30;3.80;;;12.80;99.90;;;;;;5048765;28;20029;-73
2022/10/02 04:35:43;;;;;;;31.50;4.20;;;12.70;99.90;;;;;;5048160;28;20037;-73
2022/10/02 04:38:54;;;;;;;29.52;4.75;;;12.70;99.90;;;;;;5049502;28;20581;-73
2022/10/02 04:41:43;;;;;;;22.65;3.22;;;12.70;99.90;;;;;;5021373;28;20075;-73
2022/10/02 04:44:43;;;;;;;33.33;3.47;;;12.70;99.90;;;;;;5037298;28;20943;-73
2022/10/02 04:47:39;;;;;;;22.33;3.15;;;12.70;99.90;;;;;;5043832;28;20111;-73
2022/10/02 04:50:27;;;;;;;21.20;3.05;;;12.70;99.90;;;;;;5016659;28;20036;-73
2022/10/02 04:53:29;;;;;;;24.88;3.88;;;12.70;99.90;;;;;;5050175;28;20033;-73
2022/10/02 04:56:21;;;;;;;25.42;3.47;;;12.60;99.90;;;;;;5044242;28;20115;-73
2022/10/02 04:58:59;;;;;;;21.55;3.00;;;12.60;99.90;;;;;;5046549;28;20074;-73
2022/10/02 05:02:03;;;;;;;21.38;2.72;;;12.50;99.90;;;;;;5049282;28;20091;-73
2022/10/02 05:04:34;;;;;;;31.23;4.65;;;12.50;99.90;;;;;;5017179;28;20382;-73
2022/10/02 05:07:40;;;;;;;21.00;2.53;;;12.50;99.90;;;;;;5044865;28;20067;-73
2022/10/02 05:10:34;;;;;;;32.90;3.42;;;12.40;99.90;;;;;;5049962;28;20119;-73
2022/10/02 05:13:57;;;;;;;23.52;3.45;;;12.40;99.90;;;;;;5039154;28;20062;-74
2022/10/02 05:16:49;;;;;;;27.02;3.58;;;12.40;99.90;;;;;;5049039;28;20055;-73
2022/10/02 05:19:40;;;;;;;24.83;4.18;;;12.40;99.90;;;;;;5047476;28;20489;-73
2022/10/02 05:22:39;;;;;;;22.40;3.45;;;12.40;99.90;;;;;;5048980;28;20078;-73
2022/10/02 05:25:46;;;;;;;27.90;4.53;;;12.40;99.90;;;;;;5040234;28;20116;-73
2022/10/02 05:28:44;;;;;;;24.90;4.03;;;12.40;99.90;;;;;;5013191;28;20081;-73
2022/10/02 05:31:30;;;;;;;22.35;3.45;;;12.40;99.90;;;;;;5039939;28;20069;-73
2022/10/02 05:34:23;;;;;;;25.67;3.33;;;12.40;99.90;;;;;;5048720;28;20025;-74
2022/10/02 05:36:58;;;;;;;25.67;3.38;;;12.40;99.90;;;;;;5041856;28;20025;-74
2022/10/02 05:39:32;;;;;;;24.48;2.88;;;12.40;99.90;;;;;;5045590;28;20037;-74
2022/10/02 05:42:28;;;;;;;22.42;3.30;;;12.40;99.90;;;;;;5031202;28;20049;-73
2022/10/02 05:45:01;;;;;;;19.67;2.92;;;12.40;99.90;;;;;;5045093;28;20055;-73
2022/10/02 05:47:36;;;;;;;21.20;3.13;;;12.40;99.90;;;;;;5043906;28;20110;-74
2022/10/02 05:50:24;;;;;;;23.95;2.97;;;12.40;99.90;;;;;;5033846;28;20485;-74
2022/10/02 05:52:59;;;;;;;19.88;2.72;;;12.40;99.90;;;;;;5042116;28;20416;-74
2022/10/02 05:55:31;;;;;;;22.80;3.28;;;12.30;99.90;;;;;;5043806;28;20051;-74
2022/10/02 05:58:01;;;;;;;;;;;12.30;99.90;;;;;;5045350;28;20023;-74
2022/10/02 06:00:39;;;;;;;20.63;2.50;;;12.30;99.90;;;;;;5043049;28;19909;-74
2022/10/02 06:03:32;;;;;;;19.60;3.15;;;12.30;99.90;;;;;;5047498;28;20063;-74
2022/10/02 06:06:09;;;;;;;13.15;2.28;;;12.30;99.90;;;;;;5043172;28;20057;-74
2022/10/02 06:08:40;;;;;;;21.27;2.88;;;12.30;99.90;;;;;;5041487;28;20026;-74
2022/10/02 06:11:26;;;;;;;17.30;2.30;;;12.40;99.90;;;;;;5048120;28;20032;-74
2022/10/02 06:13:58;;;;;;;20.48;2.72;;;12.40;99.90;;;;;;5044368;28;20045;-74
2022/10/02 06:16:43;;;;;;;14.88;3.10;;;12.50;99.90;;;;;;5046706;28;20028;-74
2022/10/02 06:19:18;;;;;;;19.27;2.42;;;12.50;99.90;;;;;;5044103;28;20717;-74
2022/10/02 06:21:50;;;;;;;18.98;2.40;;;12.60;99.90;;;;;;5045622;28;20017;-74
2022/10/02 06:24:29;;;;;;;18.48;3.03;;;12.60;99.90;;;;;;5048748;28;20037;-74
2022/10/02 06:26:59;;;;;;;19.10;3.10;;;12.70;99.90;;;;;;5045631;28;20076;-75
2022/10/02 06:29:35;;;;;;;29.80;3.67;;;12.80;99.90;;;;;;5044261;28;20029;-75
2022/10/02 06:32:29;;;;;;;21.67;3.95;;;12.80;99.90;;;;;;5044389;28;20108;-75
2022/10/02 06:34:55;;;;;;;21.00;3.20;;;12.90;99.90;;;;;;5048206;28;20025;-76
2022/10/02 06:37:34;;;;;;;17.67;2.38;;;12.90;99.90;;;;;;5043906;28;20116;-75
2022/10/02 06:40:21;;;;;;;24.52;3.17;;;13.00;99.90;;;;;;5043843;28;20524;-75
2022/10/02 06:43:05;;;;;;;19.60;3.40;;;13.10;99.90;;;;;;5048354;28;20051;-76
2022/10/02 06:45:57;;;;;;;23.00;3.22;;;13.10;99.90;;;;;;5034929;28;20041;-75
2022/10/02 06:48:42;;;;;;;26.88;3.53;;;13.20;99.90;;;;;;5042767;28;20017;-75
2022/10/02 06:51:19;;;;;;;22.90;3.67;;;13.20;99.90;;;;;;5041152;28;20116;-74
2022/10/02 06:54:10;;;;;;;18.17;3.58;;;13.20;99.90;;;;;;5043472;28;20386;-75
2022/10/02 06:56:52;;;;;;;16.55;2.70;;;13.30;99.90;;;;;;5045166;28;20134;-74
2022/10/02 06:59:30;;;;;;;17.23;2.97;;;13.30;99.90;;;;;;5045589;28;20029;-74
2022/10/02 07:02:01;;;;;;;29.52;2.95;;;13.30;99.90;;;;;;5042557;28;20017;-74
2022/10/02 07:04:50;;;;;;;21.05;3.05;;;13.40;99.90;;;;;;5040582;28;20038;-74
2022/10/02 07:07:39;;;;;;;25.08;3.13;;;13.50;99.90;;;;;;5051724;28;20057;-75
2022/10/02 07:10:24;;;;;;;19.58;2.53;;;13.60;99.90;;;;;;5050745;28;20025;-74
2022/10/02 07:13:22;;;;;;;26.73;2.63;;;13.60;99.90;;;;;;5046632;28;20037;-74
2022/10/02 07:16:13;;;;;;;26.25;2.42;;;13.60;99.90;;;;;;5040305;28;20041;-74
2022/10/02 07:19:06;;;;;;;21.13;2.63;;;13.60;99.90;;;;;;5042282;28;20022;-74
2022/10/02 07:21:39;;;;;;;16.98;2.78;;;13.70;99.90;;;;;;5051345;28;20029;-74
2022/10/02 07:24:36;;;;;;;24.50;3.30;;;13.70;99.90;;;;;;5045896;28;20044;-74
2022/10/02 07:27:11;;;;;;;24.58;3.70;;;13.70;99.90;;;;;;5051780;28;20431;-74
2022/10/02 07:29:52;;;;;;;23.88;2.67;;;13.80;99.90;;;;;;5048828;28;20029;-74
2022/10/02 07:32:41;;;;;;;19.20;3.72;;;13.90;99.90;;;;;;5046372;28;20393;-74
2022/10/02 07:35:29;;;;;;;20.98;2.58;;;13.90;99.90;;;;;;5046996;28;20029;-75
2022/10/02 07:38:22;;;;;;;23.05;3.15;;;14.10;99.90;;;;;;5035462;28;20397;-74
2022/10/02 07:41:11;;;;;;;26.38;5.10;;;14.20;99.90;;;;;;5045782;28;20021;-74
2022/10/02 07:44:01;;;;;;;22.63;3.40;;;14.30;99.90;;;;;;5041478;28;20175;-74
2022/10/02 07:46:59;;;;;;;28.67;3.08;;;14.40;99.90;;;;;;5044014;28;20393;-74
2022/10/02 07:50:02;;;;;;;25.83;2.47;;;14.50;99.90;;;;;;5042456;28;20036;-74
2022/10/02 07:52:54;;;;;;;24.48;3.30;;;14.50;99.90;;;;;;5045130;28;20488;-74
2022/10/02 07:55:21;;;;;;;20.87;2.60;;;14.60;99.90;;;;;;5025076;28;20469;-74
2022/10/02 07:58:15;;;;;;;23.88;3.67;;;14.60;99.90;;;;;;5035807;28;20025;-75
2022/10/02 08:00:49;;;;;;;17.40;2.83;;;14.70;99.90;;;;;;5038418;28;20119;-74
2022/10/02 08:03:21;;;;;;;19.65;2.83;;;14.70;99.90;;;;;;5041166;28;20037;-74
2022/10/02 08:05:50;;;;;;;23.70;3.28;;;14.70;99.90;;;;;;5046921;28;20055;-73
2022/10/02 08:08:39;;;;;;;16.33;2.58;;;14.80;99.90;;;;;;5037883;28;20064;-75
2022/10/02 08:11:20;;;;;;;16.65;2.30;;;14.90;99.90;;;;;;5048031;28;20021;-74
2022/10/02 08:14:33;;;;;;;19.40;2.40;;;14.90;99.90;;;;;;5039105;28;20052;-74
2022/10/02 08:17:06;;;;;;;21.53;2.23;;;15.00;99.90;;;;;;5042588;28;20032;-74
2022/10/02 08:19:40;;;;;;;19.77;3.10;;;15.00;99.90;;;;;;5051104;28;20480;-74
2022/10/02 08:22:44;;;;;;;20.23;2.72;;;15.10;99.90;;;;;;5047324;28;20147;-77
2022/10/02 08:25:18;;;;;;;21.92;3.15;;;15.20;99.90;;;;;;5035092;28;20040;-75
2022/10/02 08:28:22;;;;;;;19.63;2.35;;;15.30;99.90;;;;;;5048738;28;20032;-75
2022/10/02 08:30:47;;;;;;;22.35;3.53;;;15.40;99.90;;;;;;4963947;28;20034;-75
2022/10/02 08:33:17;;;;;;;18.38;3.20;;;15.50;99.90;;;;;;5032736;28;20045;-75
2022/10/02 08:36:06;;;;;;;20.17;2.03;;;15.50;99.90;;;;;;5040123;28;20480;-75
2022/10/02 08:38:40;;;;;;;18.75;3.15;;;15.50;99.90;;;;;;5044918;28;20123;-75
2022/10/02 08:41:21;;;;;;;20.63;2.35;;;15.60;99.90;;;;;;5043368;28;20032;-75
2022/10/02 08:44:14;;;;;;;18.27;2.20;;;15.60;99.90;;;;;;5042615;28;20032;-75
2022/10/02 08:47:13;;;;;;;18.23;2.13;;;15.70;99.90;;;;;;5049999;28;20017;-75
2022/10/02 08:49:44;;;;;;;21.35;2.17;;;15.70;99.90;;;;;;5042006;28;20029;-75
2022/10/02 08:52:49;;;;;;;17.05;2.50;;;15.80;99.90;;;;;;5042710;28;20021;-75
2022/10/02 08:55:43;;;;;;;16.20;1.60;;;15.90;99.90;;;;;;5047590;28;20052;-74
2022/10/02 08:58:42;;;;;;;14.43;1.80;;;15.90;99.90;;;;;;5041676;28;20029;-75
2022/10/02 09:01:30;;;;;;;13.18;1.58;;;15.80;99.90;;;;;;5040564;28;20025;-75
2022/10/02 09:04:24;;;;;;;19.77;2.25;;;15.80;99.90;;;;;;5044269;28;20040;-75
2022/10/02 09:07:14;;;;;;;16.88;1.40;;;15.90;99.90;;;;;;5051211;28;20052;-75
2022/10/02 09:10:08;;;;;;;14.52;1.80;;;15.90;99.90;;;;;;5045270;28;20025;-75
2022/10/02 09:12:46;;;;;;;16.23;1.83;;;15.90;99.90;;;;;;5046447;28;20619;-75
2022/10/02 09:15:17;;;;;;;16.55;2.55;;;15.90;99.90;;;;;;5043629;28;20301;-75
2022/10/02 09:18:16;;;;;;;14.20;1.30;;;16.00;99.90;;;;;;5039849;28;20431;-75
2022/10/02 09:21:17;;;;;;;14.27;1.55;;;16.20;99.90;;;;;;5044316;28;20385;-75
2022/10/02 09:23:43;;;;;;;15.43;1.45;;;16.30;99.90;;;;;;5043058;28;20041;-75
2022/10/02 09:26:22;;;;;;;20.20;1.88;;;16.50;99.90;;;;;;5047781;28;20028;-76
2022/10/02 09:29:21;;;;;;;12.95;1.85;;;16.70;99.90;;;;;;5049094;28;20039;-76
2022/10/02 09:32:23;;;;;;;19.00;1.70;;;16.90;99.90;;;;;;5043746;28;20029;-76
2022/10/02 09:35:18;;;;;;;11.10;1.63;;;17.00;99.90;;;;;;5034802;28;20030;-76
2022/10/02 09:37:53;;;;;;;15.18;1.23;;;17.10;99.90;;;;;;5040248;28;20428;-76
2022/10/02 09:41:06;;;;;;;14.35;1.27;;;17.10;99.90;;;;;;5046836;28;20049;-75
2022/10/02 09:44:05;;;;;;;13.10;1.60;;;17.10;99.90;;;;;;4995140;28;20107;-75
2022/10/02 09:46:53;;;;;;;12.45;1.05;;;17.10;99.90;;;;;;5039831;28;20366;-76
2022/10/02 09:49:24;;;;;;;16.02;1.48;;;17.00;99.90;;;;;;5042935;28;20029;-75
2022/10/02 09:52:26;;;;;;;10.67;0.93;;;17.00;99.90;;;;;;5048716;28;20025;-75
2022/10/02 09:55:16;;;;;;;12.52;1.02;;;17.00;99.90;;;;;;5031859;28;20265;-74
2022/10/02 09:57:50;;;;;;;20.50;2.38;;;16.90;99.90;;;;;;5036457;28;20036;-75
2022/10/02 10:00:50;;;;;;;17.17;1.10;;;16.90;99.90;;;;;;5044234;28;20400;-76
2022/10/02 10:03:43;;;;;;;14.98;2.85;;;16.90;99.90;;;;;;5047542;28;20044;-75
2022/10/02 10:06:22;;;;;;;;;;;16.90;99.90;;;;;;5045585;28;20040;-76
2022/10/02 10:09:13;;;;;;;12.75;0.95;;;17.00;99.90;;;;;;5043188;28;20003;-76
2022/10/02 10:12:15;;;;;;;11.25;1.00;;;17.20;99.90;;;;;;5046029;28;20052;-76
2022/10/02 10:15:11;;;;;;;14.20;1.25;;;17.40;99.90;;;;;;5047668;28;20037;-75
2022/10/02 10:18:09;;;;;;;15.43;1.00;;;17.60;99.90;;;;;;5048816;28;20473;-76
2022/10/02 10:21:12;;;;;;;16.00;1.10;;;17.70;99.90;;;;;;5046165;28;20022;-75
2022/10/02 10:24:01;;;;;;;9.00;0.95;;;17.80;99.90;;;;;;5048009;28;20041;-76
2022/10/02 10:26:51;;;;;;;9.88;0.77;;;17.90;99.90;;;;;;5043485;28;20394;-76
2022/10/02 10:29:44;;;;;;;14.07;1.48;;;17.80;99.90;;;;;;5036144;28;20084;-75
2022/10/02 10:32:25;;;;;;;13.18;0.80;;;17.70;99.90;;;;;;5036341;28;20096;-76
2022/10/02 10:35:18;;;;;;;17.50;2.35;;;17.80;99.90;;;;;;5046300;28;20025;-76
2022/10/02 10:41:08;;;;;;;13.40;1.17;;;17.90;99.90;;;;;;5041437;28;20044;-76
2022/10/02 10:43:37;;;;;;;11.38;0.93;;;17.90;99.90;;;;;;5036545;28;20087;-76
2022/10/02 10:46:22;;;;;;;13.80;0.93;;;17.80;99.90;;;;;;5051731;28;20037;-76
2022/10/02 10:49:29;;;;;;;13.45;0.73;;;17.80;99.90;;;;;;5043089;28;20076;-76
2022/10/02 10:52:15;;;;;;;7.78;0.68;;;17.80;99.90;;;;;;5047917;28;20056;-76
2022/10/02 10:55:01;;;;;;;14.82;1.40;;;17.70;99.90;;;;;;5047002;28;20031;-76
2022/10/02 10:57:41;;;;;;;13.80;1.00;;;17.70;99.90;;;;;;5041658;28;20025;-76
2022/10/02 11:00:18;;;;;;;9.68;1.27;;;17.70;99.90;;;;;;5048362;28;20025;-76
2022/10/02 11:03:12;;;;;;;8.75;1.33;;;17.80;99.90;;;;;;5042651;28;20029;-76
2022/10/02 11:06:10;;;;;;;13.45;1.05;;;17.80;99.90;;;;;;5040833;28;20032;-76
2022/10/02 11:09:03;;;;;;;13.95;0.80;;;17.80;99.90;;;;;;5041044;28;20033;-76
2022/10/02 11:11:46;;;;;;;11.43;0.88;;;17.80;99.90;;;;;;5039406;28;20388;-77
2022/10/02 11:14:30;;;;;;;12.93;1.27;;;17.70;99.90;;;;;;5045621;28;20049;-76
2022/10/02 11:17:07;;;;;;;9.90;0.90;;;17.80;99.90;;;;;;5039812;28;20044;-73
2022/10/02 11:19:41;;;;;;;8.55;0.57;;;17.80;99.90;;;;;;5038121;28;20013;-76
2022/10/02 11:22:27;;;;;;;7.68;0.60;;;17.90;99.90;;;;;;5043199;28;20056;-76
2022/10/02 11:25:18;;;;;;;11.68;0.90;;;18.00;99.90;;;;;;5047910;28;20048;-73
2022/10/02 11:28:01;;;;;;;11.50;0.70;;;18.00;99.90;;;;;;5042377;28;20075;-73
2022/10/02 11:30:53;;;;;;;8.82;0.85;;;18.00;99.90;;;;;;5049780;28;20056;-74
2022/10/02 11:33:39;;;;;;;9.52;0.80;;;17.90;99.90;;;;;;5043146;28;20037;-76
2022/10/02 11:36:23;;;;;;;10.50;0.82;;;17.90;99.90;;;;;;5051222;28;20028;-75
2022/10/02 11:39:04;;;;;;;13.05;1.02;;;17.90;99.90;;;;;;5045731;28;20029;-77
2022/10/02 11:41:45;;;;;;;7.53;0.70;;;17.70;99.90;;;;;;5045257;28;20029;-76
2022/10/02 11:44:29;;;;;;;9.93;0.80;;;17.70;99.90;;;;;;5040491;28;20124;-76
2022/10/02 11:47:18;;;;;;;8.48;0.77;;;17.70;99.90;;;;;;5036127;28;20028;-76
2022/10/02 11:50:16;;;;;;;9.55;0.70;;;17.70;99.90;;;;;;5045044;28;20109;-75
2022/10/02 11:53:06;;;;;;;9.02;0.63;;;17.80;99.90;;;;;;5031057;28;20037;-76
2022/10/02 11:56:10;;;;;;;8.60;0.73;;;18.10;99.90;;;;;;5051636;28;20437;-76
2022/10/02 11:59:29;;;;;;;12.48;0.77;;;18.20;99.90;;;;;;5050029;28;20507;-76
2022/10/02 12:02:09;;;;;;;9.25;0.80;;;18.10;99.90;;;;;;5012996;28;20037;-76
2022/10/02 12:05:03;;;;;;;8.52;0.90;;;18.00;99.90;;;;;;5050235;28;20048;-76
2022/10/02 12:08:04;;;;;;;11.30;1.50;;;17.90;99.90;;;;;;5043677;28;20120;-76
2022/10/02 12:10:43;;;;;;;13.63;0.77;;;18.00;99.90;;;;;;5035738;28;20025;-76
2022/10/02 12:13:26;;;;;;;7.93;0.57;;;18.10;99.90;;;;;;5048553;28;20381;-76
2022/10/02 12:16:15;;;;;;;9.82;0.70;;;18.10;99.90;;;;;;5045980;28;20174;-76
2022/10/02 12:19:17;;;;;;;6.82;0.60;;;18.10;99.90;;;;;;5041054;28;20083;-76
2022/10/02 12:28:15;;;;;;;8.68;0.70;;;18.20;99.90;;;;;;5040390;28;20159;-77
2022/10/02 12:31:23;;;;;;;6.78;0.50;;;18.40;99.90;;;;;;5051154;28;20117;-76
2022/10/02 12:34:14;;;;;;;6.43;0.80;;;18.60;99.90;;;;;;5048478;28;20021;-76
2022/10/02 12:36:39;;;;;;;10.95;1.20;;;18.70;99.90;;;;;;5046601;28;20108;-76
2022/10/02 12:39:29;;;;;;;7.15;0.47;;;18.70;99.90;;;;;;5041539;28;20487;-76
2022/10/02 12:42:25;;;;;;;2.63;0.40;;;18.80;99.90;;;;;;5042216;28;20057;-76
2022/10/02 12:45:30;;;;;;;8.32;0.75;;;18.90;99.90;;;;;;5044924;28;20040;-76
2022/10/02 12:48:25;;;;;;;6.05;0.40;;;19.00;99.90;;;;;;5034908;28;20057;-76
2022/10/02 12:51:08;;;;;;;6.32;0.50;;;19.20;99.90;;;;;;5044174;28;21631;-76
2022/10/02 12:53:53;;;;;;;;;;;19.30;99.90;;;;;;5036424;28;20062;-76
2022/10/02 12:57:00;;;;;;;5.90;0.65;;;19.30;99.90;;;;;;5008554;28;20004;-76
2022/10/02 12:59:54;;;;;;;6.55;0.60;;;19.40;99.90;;;;;;5043839;28;20061;-76
2022/10/02 13:02:41;;;;;;;4.55;0.60;;;19.40;99.90;;;;;;5045230;28;20037;-76
2022/10/02 13:06:00;;;;;;;10.90;0.68;;;19.50;99.90;;;;;;5039429;28;20071;-76
2022/10/02 13:08:34;;;;;;;8.02;0.65;;;19.70;99.90;;;;;;5046116;28;20132;-76
2022/10/02 13:11:02;;;;;;;6.78;0.75;;;19.60;99.90;;;;;;5047444;28;20044;-73
2022/10/02 13:13:49;;;;;;;10.02;0.85;;;19.40;99.90;;;;;;5041318;28;20386;-73
2022/10/02 13:16:47;;;;;;;6.72;0.80;;;19.20;99.90;;;;;;5043086;28;20039;-74
2022/10/02 13:19:55;;;;;;;7.40;0.68;;;19.00;99.90;;;;;;5045400;28;20029;-74
2022/10/02 13:22:34;;;;;;;8.43;1.00;;;18.90;99.90;;;;;;5046714;28;20025;-74
2022/10/02 13:25:24;;;;;;;10.73;0.80;;;18.60;99.90;;;;;;5041216;28;20056;-74
2022/10/02 13:28:19;;;;;;;9.82;1.00;;;18.50;99.90;;;;;;5043605;28;20876;-75
2022/10/02 13:31:27;;;;;;;7.68;0.50;;;18.30;99.90;;;;;;4945745;28;20110;-74
2022/10/02 13:34:25;;;;;;;8.43;0.90;;;18.10;99.90;;;;;;5043078;28;20029;-74
2022/10/02 13:37:03;;;;;;;13.82;1.10;;;17.80;99.90;;;;;;5046318;28;20079;-75
2022/10/02 13:39:51;;;;;;;9.93;0.93;;;17.70;99.90;;;;;;5046888;28;20136;-74
2022/10/02 13:42:41;;;;;;;8.90;0.70;;;17.60;99.90;;;;;;5048025;28;20098;-76
2022/10/02 13:45:17;;;;;;;9.85;1.35;;;17.40;99.90;;;;;;5046607;28;20044;-74
2022/10/02 13:48:08;;;;;;;9.98;0.73;;;17.40;99.90;;;;;;5048885;28;20064;-74
2022/10/02 13:50:58;;;;;;;8.95;0.50;;;17.50;99.90;;;;;;5042091;28;20097;-74
2022/10/02 13:53:44;;;;;;;3.95;0.52;;;17.70;99.90;;;;;;5049552;28;20025;-74
2022/10/02 13:56:49;;;;;;;9.38;0.75;;;17.90;99.90;;;;;;5038867;28;20109;-76
2022/10/02 13:59:25;;;;;;;4.60;0.40;;;18.10;99.90;;;;;;5046641;28;20029;-76
2022/10/02 14:02:27;;;;;;;9.02;0.63;;;18.20;99.90;;;;;;5045465;28;20029;-76
2022/10/02 14:05:09;;;;;;;9.82;0.55;;;18.20;99.90;;;;;;5040639;28;20093;-76
2022/10/02 14:08:00;;;;;;;7.43;0.70;;;18.20;99.90;;;;;;5036922;28;20100;-76
2022/10/02 14:10:52;;;;;;;7.70;0.45;;;18.20;99.90;;;;;;5037845;28;20035;-76
2022/10/02 14:13:41;;;;;;;7.57;0.60;;;18.40;99.90;;;;;;5045517;28;20094;-78
2022/10/02 14:16:26;;;;;;;8.50;0.70;;;18.50;99.90;;;;;;5047955;28;20033;-76
2022/10/02 14:19:06;;;;;;;8.10;0.75;;;18.60;99.90;;;;;;5048895;28;20428;-75